Vero Beach Municipal Airport
KVRB : now visible

Airfield :











YOU CAN JOIN US ON...

 
LOGIN :

Register | Disclaimer

   EN    FR    IT 

 









Legend :    VFR   Marginal VFR   IFR   Intensive IFR   Very Intensive IFR
Visi :
Ceiling :
>= 8 km
>= 3000ft
5 to 8 km
1000 to 3000 ft
1500m to 5 km
500 to 1000 ft
800 to 1500m
200 to 500 ft
< 800m
< 200 ft
Symbols :   Thunderstorms  Fog  Heavy snow  Heavy precipitations  Wind > 20 kt







- Airport Elevation : 24 ft
- IATA code : VRB


KVRB - Vero Beach Municipal

CURRENT METAR :
  • 252053Z 11009KT 10SM FEW050 OVC065 24/17 A3004 RMK AO2 SLP171 T02440172 56019

EXPIRED METARs :
  • 251953Z 11012KT 10SM FEW065 27/17 A3005 RMK AO2 SLP174 T02670172
  • 251853Z 10013KT 10SM SCT040 27/17 A3007 RMK AO2 SLP182 T02670172

TAF KVRB
Valid from the 25 at 18:00 until the 26 at 18:00 UTC


251724Z 2518/2618 11011KT P6SM SCT040 SCT250
FM260000 14005KT P6SM FEW040 FEW050
FM260300 20003KT P6SM FEW050 SCT250
FM260800 25003KT P6SM FEW250
FM261400 28008KT P6SM SCT025
FM261700 31008KT P6SM SCT040 SCT060
KZMA FIR / North America



MET'MAP, your aeronautical weather chart ! - Copyright ORBIFLY December 2007 - Disclaimer

ORBIFLY MET'MAP TEAM :

Programming & Development : Alexandra Zaïnal
Concept & Development : Baudouin d'Aumeries
Co-Development & Prog : Marc-Olivier Méhu
Technical & hardware support : Manuel Goepfert

Contact : metmap@orbifly.com




SOURCES & CREDITS :

   NOAA       Earth
Advisory